sensor_id;sensor_type;location;lat;lon;timestamp;pressure;altitude;pressure_sealevel;temperature;humidity
70133;BME280;57495;49.922;7.966;2022-08-18T00:00:00;99494.66;;;23.22;58.41
70133;BME280;57495;49.922;7.966;2022-08-18T00:02:04;99494.31;;;23.18;58.47
70133;BME280;57495;49.922;7.966;2022-08-18T00:04:07;99493.56;;;23.23;58.44
70133;BME280;57495;49.922;7.966;2022-08-18T00:06:08;99492.75;;;23.22;58.36
70133;BME280;57495;49.922;7.966;2022-08-18T00:08:10;99494.78;;;23.15;58.51
70133;BME280;57495;49.922;7.966;2022-08-18T00:10:12;99494.66;;;23.22;58.39
70133;BME280;57495;49.922;7.966;2022-08-18T00:12:18;99487.19;;;23.05;58.94
70133;BME280;57495;49.922;7.966;2022-08-18T00:14:21;99490.94;;;22.92;59.35
70133;BME280;57495;49.922;7.966;2022-08-18T00:16:22;99491.19;;;22.79;59.86
70133;BME280;57495;49.922;7.966;2022-08-18T00:18:24;99492.38;;;22.83;59.83
70133;BME280;57495;49.922;7.966;2022-08-18T00:20:25;99494.38;;;22.64;60.42
70133;BME280;57495;49.922;7.966;2022-08-18T00:22:27;99488.34;;;22.62;60.69
70133;BME280;57495;49.922;7.966;2022-08-18T00:24:28;99495.06;;;22.48;61.06
70133;BME280;57495;49.922;7.966;2022-08-18T00:26:31;99497.06;;;22.52;60.87
70133;BME280;57495;49.922;7.966;2022-08-18T00:28:33;99495.94;;;22.72;60.26
70133;BME280;57495;49.922;7.966;2022-08-18T00:30:34;99494.88;;;22.73;60.29
70133;BME280;57495;49.922;7.966;2022-08-18T00:32:38;99490.94;;;22.69;60.76
70133;BME280;57495;49.922;7.966;2022-08-18T00:34:39;99495.66;;;22.62;60.77
70133;BME280;57495;49.922;7.966;2022-08-18T00:36:41;99490.28;;;22.43;61.73
70133;BME280;57495;49.922;7.966;2022-08-18T00:38:43;99495.44;;;22.63;60.90
70133;BME280;57495;49.922;7.966;2022-08-18T00:40:47;99491.44;;;22.66;60.72
70133;BME280;57495;49.922;7.966;2022-08-18T00:42:52;99489.16;;;22.63;60.78
70133;BME280;57495;49.922;7.966;2022-08-18T00:44:55;99494.25;;;22.59;60.96
70133;BME280;57495;49.922;7.966;2022-08-18T00:46:58;99495.66;;;22.62;60.81
70133;BME280;57495;49.922;7.966;2022-08-18T00:48:59;99497.47;;;22.68;60.54
70133;BME280;57495;49.922;7.966;2022-08-18T00:51:03;99493.31;;;22.77;60.34
70133;BME280;57495;49.922;7.966;2022-08-18T00:53:12;99493.19;;;22.72;60.31
70133;BME280;57495;49.922;7.966;2022-08-18T00:55:17;99493.19;;;22.72;60.31
70133;BME280;57495;49.922;7.966;2022-08-18T00:57:21;99498.56;;;22.78;60.03
70133;BME280;57495;49.922;7.966;2022-08-18T00:59:27;99502.69;;;22.69;60.29
70133;BME280;57495;49.922;7.966;2022-08-18T01:01:31;99505.28;;;22.76;59.98
70133;BME280;57495;49.922;7.966;2022-08-18T01:03:34;99505.41;;;22.69;60.01
70133;BME280;57495;49.922;7.966;2022-08-18T01:05:42;99512.28;;;22.72;60.12
70133;BME280;57495;49.922;7.966;2022-08-18T01:07:46;99509.19;;;22.80;59.54
70133;BME280;57495;49.922;7.966;2022-08-18T01:09:49;99514.91;;;22.90;59.45
70133;BME280;57495;49.922;7.966;2022-08-18T01:11:52;99512.41;;;22.77;59.80
70133;BME280;57495;49.922;7.966;2022-08-18T01:13:53;99522.50;;;22.76;59.75
70133;BME280;57495;49.922;7.966;2022-08-18T01:15:56;99530.56;;;22.83;59.52
70133;BME280;57495;49.922;7.966;2022-08-18T01:18:00;99535.19;;;22.83;59.28
70133;BME280;57495;49.922;7.966;2022-08-18T01:20:33;99532.31;;;22.89;59.30
70133;BME280;57495;49.922;7.966;2022-08-18T01:22:58;99532.94;;;22.91;59.15
70133;BME280;57495;49.922;7.966;2022-08-18T01:25:01;99537.19;;;22.87;59.24
70133;BME280;57495;49.922;7.966;2022-08-18T01:27:20;99529.69;;;22.59;60.51
70133;BME280;57495;49.922;7.966;2022-08-18T01:29:22;99531.00;;;22.56;60.65
70133;BME280;57495;49.922;7.966;2022-08-18T01:31:32;99532.03;;;22.55;60.59
70133;BME280;57495;49.922;7.966;2022-08-18T01:33:39;99529.22;;;22.62;60.44
70133;BME280;57495;49.922;7.966;2022-08-18T01:35:42;99531.59;;;22.58;60.55
70133;BME280;57495;49.922;7.966;2022-08-18T01:37:47;99523.34;;;22.35;61.55
70133;BME280;57495;49.922;7.966;2022-08-18T01:39:50;99525.63;;;22.50;60.88
70133;BME280;57495;49.922;7.966;2022-08-18T01:41:52;99532.19;;;22.61;60.79
70133;BME280;57495;49.922;7.966;2022-08-18T01:43:53;99523.88;;;22.55;60.90
70133;BME280;57495;49.922;7.966;2022-08-18T01:45:55;99529.91;;;22.57;60.83
70133;BME280;57495;49.922;7.966;2022-08-18T01:48:00;99528.63;;;22.60;61.05
70133;BME280;57495;49.922;7.966;2022-08-18T01:50:04;99527.78;;;22.59;60.94
70133;BME280;57495;49.922;7.966;2022-08-18T01:52:06;99532.63;;;22.57;60.78
70133;BME280;57495;49.922;7.966;2022-08-18T01:54:10;99523.50;;;22.52;60.79
70133;BME280;57495;49.922;7.966;2022-08-18T01:56:14;99521.25;;;22.49;61.13
70133;BME280;57495;49.922;7.966;2022-08-18T01:58:17;99520.63;;;22.47;61.23
70133;BME280;57495;49.922;7.966;2022-08-18T02:00:28;99530.25;;;22.49;60.81
70133;BME280;57495;49.922;7.966;2022-08-18T02:02:32;99516.13;;;22.41;61.07
70133;BME280;57495;49.922;7.966;2022-08-18T02:04:33;99517.44;;;22.38;61.26
70133;BME280;57495;49.922;7.966;2022-08-18T02:06:34;99510.81;;;22.34;61.10
70133;BME280;57495;49.922;7.966;2022-08-18T02:08:36;99518.88;;;22.22;61.98
70133;BME280;57495;49.922;7.966;2022-08-18T02:10:38;99520.34;;;22.25;61.77
70133;BME280;57495;49.922;7.966;2022-08-18T02:12:41;99519.28;;;22.26;62.06
70133;BME280;57495;49.922;7.966;2022-08-18T02:14:42;99512.91;;;22.32;62.02
70133;BME280;57495;49.922;7.966;2022-08-18T02:16:44;99502.50;;;22.29;61.80
70133;BME280;57495;49.922;7.966;2022-08-18T02:18:46;99489.31;;;22.26;61.82
70133;BME280;57495;49.922;7.966;2022-08-18T02:20:47;99498.13;;;22.09;62.21
70133;BME280;57495;49.922;7.966;2022-08-18T02:22:49;99493.41;;;22.16;61.80
70133;BME280;57495;49.922;7.966;2022-08-18T02:24:51;99500.03;;;22.20;61.72
70133;BME280;57495;49.922;7.966;2022-08-18T02:26:53;99493.31;;;22.23;61.54
70133;BME280;57495;49.922;7.966;2022-08-18T02:28:56;99502.50;;;22.10;61.85
70133;BME280;57495;49.922;7.966;2022-08-18T02:31:03;99509.75;;;22.16;62.07
70133;BME280;57495;49.922;7.966;2022-08-18T02:33:05;99512.63;;;22.22;61.69
70133;BME280;57495;49.922;7.966;2022-08-18T02:35:08;99511.47;;;22.29;61.55
70133;BME280;57495;49.922;7.966;2022-08-18T02:37:11;99516.56;;;22.26;61.81
70133;BME280;57495;49.922;7.966;2022-08-18T02:39:12;99521.84;;;22.20;61.92
70133;BME280;57495;49.922;7.966;2022-08-18T02:41:14;99516.38;;;22.20;61.74
70133;BME280;57495;49.922;7.966;2022-08-18T02:43:15;99518.38;;;22.13;61.90
70133;BME280;57495;49.922;7.966;2022-08-18T02:45:19;99518.38;;;22.13;61.99
70133;BME280;57495;49.922;7.966;2022-08-18T02:47:22;99520.72;;;22.10;61.91
70133;BME280;57495;49.922;7.966;2022-08-18T02:49:23;99522.03;;;22.07;61.98
70133;BME280;57495;49.922;7.966;2022-08-18T02:51:25;99528.66;;;22.11;61.95
70133;BME280;57495;49.922;7.966;2022-08-18T02:53:26;99518.38;;;22.13;61.92
70133;BME280;57495;49.922;7.966;2022-08-18T02:55:28;99525.63;;;22.19;61.46
70133;BME280;57495;49.922;7.966;2022-08-18T02:57:30;99525.41;;;22.21;61.55
70133;BME280;57495;49.922;7.966;2022-08-18T02:59:32;99516.56;;;22.26;61.45
70133;BME280;57495;49.922;7.966;2022-08-18T03:01:37;99523.06;;;22.25;61.42
70133;BME280;57495;49.922;7.966;2022-08-18T03:03:38;99521.00;;;22.20;61.50
70133;BME280;57495;49.922;7.966;2022-08-18T03:05:40;99523.06;;;22.25;61.96
70133;BME280;57495;49.922;7.966;2022-08-18T03:07:42;99525.78;;;22.25;61.85
70133;BME280;57495;49.922;7.966;2022-08-18T03:09:43;99526.84;;;22.24;61.83
70133;BME280;57495;49.922;7.966;2022-08-18T03:13:46;99529.41;;;22.18;62.19
70133;BME280;57495;49.922;7.966;2022-08-18T03:15:48;99526.47;;;22.20;62.78
70133;BME280;57495;49.922;7.966;2022-08-18T03:17:51;99528.38;;;22.19;62.67
70133;BME280;57495;49.922;7.966;2022-08-18T03:19:53;99529.91;;;22.15;62.98
70133;BME280;57495;49.922;7.966;2022-08-18T03:21:55;99529.41;;;22.18;63.33
70133;BME280;57495;49.922;7.966;2022-08-18T03:23:59;99526.09;;;22.16;63.28
70133;BME280;57495;49.922;7.966;2022-08-18T03:26:01;99526.53;;;22.13;64.33
70133;BME280;57495;49.922;7.966;2022-08-18T03:28:03;99530.72;;;22.16;64.53
70133;BME280;57495;49.922;7.966;2022-08-18T03:30:07;99521.94;;;22.14;64.75
70133;BME280;57495;49.922;7.966;2022-08-18T03:32:08;99516.59;;;22.07;65.32
70133;BME280;57495;49.922;7.966;2022-08-18T03:34:11;99514.44;;;22.09;65.21
70133;BME280;57495;49.922;7.966;2022-08-18T03:36:15;99508.75;;;21.99;65.18
70133;BME280;57495;49.922;7.966;2022-08-18T03:38:17;99512.53;;;21.98;65.80
70133;BME280;57495;49.922;7.966;2022-08-18T03:40:18;99520.91;;;21.96;65.74
70133;BME280;57495;49.922;7.966;2022-08-18T03:42:20;99520.69;;;21.98;65.81
70133;BME280;57495;49.922;7.966;2022-08-18T03:44:22;99525.09;;;21.99;65.93
70133;BME280;57495;49.922;7.966;2022-08-18T03:46:24;99521.88;;;22.02;65.92
70133;BME280;57495;49.922;7.966;2022-08-18T03:48:25;99531.34;;;21.99;66.87
70133;BME280;57495;49.922;7.966;2022-08-18T03:50:28;99520.69;;;21.98;67.22
70133;BME280;57495;49.922;7.966;2022-08-18T03:52:31;99512.16;;;21.94;68.01
70133;BME280;57495;49.922;7.966;2022-08-18T03:54:32;99502.56;;;21.92;67.56
70133;BME280;57495;49.922;7.966;2022-08-18T03:56:36;99497.75;;;21.75;68.40
70133;BME280;57495;49.922;7.966;2022-08-18T03:58:38;99503.47;;;21.67;68.72
70133;BME280;57495;49.922;7.966;2022-08-18T04:00:40;99498.66;;;21.69;68.45
70133;BME280;57495;49.922;7.966;2022-08-18T04:02:41;99505.00;;;21.63;68.09
70133;BME280;57495;49.922;7.966;2022-08-18T04:04:43;99507.88;;;21.68;68.09
70133;BME280;57495;49.922;7.966;2022-08-18T04:06:47;99507.72;;;21.63;68.31
70133;BME280;57495;49.922;7.966;2022-08-18T04:08:51;99511.28;;;21.64;67.63
70133;BME280;57495;49.922;7.966;2022-08-18T04:10:53;99503.81;;;21.59;68.04
70133;BME280;57495;49.922;7.966;2022-08-18T04:12:55;99512.66;;;21.54;68.10
70133;BME280;57495;49.922;7.966;2022-08-18T04:14:57;99510.75;;;21.55;67.91
70133;BME280;57495;49.922;7.966;2022-08-18T04:16:58;99508.25;;;21.53;67.78
70133;BME280;57495;49.922;7.966;2022-08-18T04:19:00;99505.31;;;21.55;67.38
70133;BME280;57495;49.922;7.966;2022-08-18T04:21:03;99516.81;;;21.57;67.11
70133;BME280;57495;49.922;7.966;2022-08-18T04:23:08;99505.59;;;21.47;67.30
70133;BME280;57495;49.922;7.966;2022-08-18T04:25:09;99505.16;;;21.50;67.39
70133;BME280;57495;49.922;7.966;2022-08-18T04:27:11;99505.19;;;21.43;67.96
70133;BME280;57495;49.922;7.966;2022-08-18T04:29:14;99510.59;;;21.50;67.75
70133;BME280;57495;49.922;7.966;2022-08-18T04:31:16;99505.28;;;21.36;68.19
70133;BME280;57495;49.922;7.966;2022-08-18T04:33:22;99504.38;;;21.42;68.57
70133;BME280;57495;49.922;7.966;2022-08-18T04:35:24;99507.91;;;21.43;68.53
70133;BME280;57495;49.922;7.966;2022-08-18T04:37:28;99511.34;;;21.38;68.36
70133;BME280;57495;49.922;7.966;2022-08-18T04:39:32;99508.63;;;21.38;68.53
70133;BME280;57495;49.922;7.966;2022-08-18T04:41:35;99518.41;;;21.39;68.16
70133;BME280;57495;49.922;7.966;2022-08-18T04:43:38;99518.16;;;21.48;67.64
70133;BME280;57495;49.922;7.966;2022-08-18T04:45:39;99519.06;;;21.41;67.89
70133;BME280;57495;49.922;7.966;2022-08-18T04:47:41;99522.69;;;21.54;67.40
70133;BME280;57495;49.922;7.966;2022-08-18T04:49:42;99527.69;;;21.57;67.46
70133;BME280;57495;49.922;7.966;2022-08-18T04:51:46;99535.03;;;21.56;67.71
70133;BME280;57495;49.922;7.966;2022-08-18T04:54:08;99533.59;;;21.54;67.46
70133;BME280;57495;49.922;7.966;2022-08-18T04:56:15;99528.34;;;21.52;67.49
70133;BME280;57495;49.922;7.966;2022-08-18T04:58:22;99528.06;;;21.60;66.79
70133;BME280;57495;49.922;7.966;2022-08-18T05:00:24;99532.66;;;21.41;67.84
70133;BME280;57495;49.922;7.966;2022-08-18T05:02:25;99530.09;;;21.47;67.81
70133;BME280;57495;49.922;7.966;2022-08-18T05:04:27;99536.78;;;21.51;67.47
70133;BME280;57495;49.922;7.966;2022-08-18T05:06:29;99537.03;;;21.42;67.73
70133;BME280;57495;49.922;7.966;2022-08-18T05:08:32;99544.25;;;21.55;67.28
70133;BME280;57495;49.922;7.966;2022-08-18T05:10:34;99547.13;;;21.60;67.36
70133;BME280;57495;49.922;7.966;2022-08-18T05:12:37;99543.97;;;21.64;67.61
70133;BME280;57495;49.922;7.966;2022-08-18T05:14:40;99548.09;;;21.66;67.59
70133;BME280;57495;49.922;7.966;2022-08-18T05:16:44;99553.09;;;21.69;67.77
70133;BME280;57495;49.922;7.966;2022-08-18T05:18:45;99556.44;;;21.71;67.65
70133;BME280;57495;49.922;7.966;2022-08-18T05:20:48;99562.31;;;21.68;67.55
70133;BME280;57495;49.922;7.966;2022-08-18T05:22:50;99567.75;;;21.68;67.17
70133;BME280;57495;49.922;7.966;2022-08-18T05:24:51;99565.19;;;21.73;67.16
70133;BME280;57495;49.922;7.966;2022-08-18T05:26:53;99564.59;;;21.71;67.44
70133;BME280;57495;49.922;7.966;2022-08-18T05:28:56;99568.97;;;21.72;67.73
70133;BME280;57495;49.922;7.966;2022-08-18T05:30:58;99567.44;;;21.76;67.37
70133;BME280;57495;49.922;7.966;2022-08-18T05:32:59;99559.75;;;21.73;67.32
70133;BME280;57495;49.922;7.966;2022-08-18T05:35:03;99558.91;;;21.73;67.21
70133;BME280;57495;49.922;7.966;2022-08-18T05:37:17;99563.28;;;21.74;67.23
70133;BME280;57495;49.922;7.966;2022-08-18T05:39:25;99562.00;;;21.58;68.14
70133;BME280;57495;49.922;7.966;2022-08-18T05:41:32;99553.31;;;21.68;67.74
70133;BME280;57495;49.922;7.966;2022-08-18T05:43:36;99545.97;;;21.68;67.87
70133;BME280;57495;49.922;7.966;2022-08-18T05:45:39;99562.00;;;21.58;68.23
70133;BME280;57495;49.922;7.966;2022-08-18T05:47:43;99558.63;;;21.62;67.98
70133;BME280;57495;49.922;7.966;2022-08-18T05:49:46;99562.91;;;21.70;67.66
70133;BME280;57495;49.922;7.966;2022-08-18T05:51:50;99563.06;;;21.75;68.33
70133;BME280;57495;49.922;7.966;2022-08-18T05:53:52;99570.63;;;21.73;68.21
70133;BME280;57495;49.922;7.966;2022-08-18T05:56:31;99566.41;;;21.77;68.17
70133;BME280;57495;49.922;7.966;2022-08-18T05:58:50;99564.13;;;21.74;68.12
70133;BME280;57495;49.922;7.966;2022-08-18T06:00:56;99565.94;;;21.80;68.04
70133;BME280;57495;49.922;7.966;2022-08-18T06:03:04;99570.31;;;21.81;67.84
70133;BME280;57495;49.922;7.966;2022-08-18T06:05:10;99568.53;;;21.75;67.82
70133;BME280;57495;49.922;7.966;2022-08-18T06:07:15;99567.97;;;21.85;67.99
70133;BME280;57495;49.922;7.966;2022-08-18T06:09:20;99574.25;;;21.86;68.05
70133;BME280;57495;49.922;7.966;2022-08-18T06:11:24;99575.00;;;21.93;67.89
70133;BME280;57495;49.922;7.966;2022-08-18T06:13:25;99574.19;;;21.92;68.08
70133;BME280;57495;49.922;7.966;2022-08-18T06:15:31;99570.47;;;21.87;67.32
70133;BME280;57495;49.922;7.966;2022-08-18T06:17:56;99559.75;;;21.92;67.29
70133;BME280;57495;49.922;7.966;2022-08-18T06:20:05;99563.66;;;21.96;67.27
70133;BME280;57495;49.922;7.966;2022-08-18T06:22:16;99556.53;;;21.95;67.65
70133;BME280;57495;49.922;7.966;2022-08-18T06:24:25;99550.63;;;21.98;67.45
70133;BME280;57495;49.922;7.966;2022-08-18T06:26:38;99549.44;;;21.94;67.17
70133;BME280;57495;49.922;7.966;2022-08-18T06:28:53;99552.69;;;22.03;66.52
70133;BME280;57495;49.922;7.966;2022-08-18T06:31:04;99552.31;;;21.99;66.99
70133;BME280;57495;49.922;7.966;2022-08-18T06:33:23;99556.84;;;22.05;66.99
70133;BME280;57495;49.922;7.966;2022-08-18T06:35:34;99557.28;;;22.02;67.55
70133;BME280;57495;49.922;7.966;2022-08-18T06:37:41;99568.78;;;21.86;67.75
70133;BME280;57495;49.922;7.966;2022-08-18T06:40:00;99564.34;;;21.73;68.25
70133;BME280;57495;49.922;7.966;2022-08-18T06:42:04;99565.09;;;21.80;68.05
70133;BME280;57495;49.922;7.966;2022-08-18T06:44:08;99562.31;;;21.87;68.24
70133;BME280;57495;49.922;7.966;2022-08-18T06:46:16;99566.56;;;21.64;70.16
70133;BME280;57495;49.922;7.966;2022-08-18T06:48:26;99556.44;;;21.71;69.83
70133;BME280;57495;49.922;7.966;2022-08-18T06:50:36;99558.22;;;21.96;69.55
70133;BME280;57495;49.922;7.966;2022-08-18T06:52:52;99552.91;;;22.01;68.51
70133;BME280;57495;49.922;7.966;2022-08-18T06:54:56;99557.88;;;22.04;68.76
70133;BME280;57495;49.922;7.966;2022-08-18T06:56:58;99557.81;;;22.11;68.20
70133;BME280;57495;49.922;7.966;2022-08-18T06:59:20;99564.06;;;22.11;68.11
70133;BME280;57495;49.922;7.966;2022-08-18T07:01:23;99556.50;;;22.13;68.35
70133;BME280;57495;49.922;7.966;2022-08-18T07:03:42;99565.91;;;22.17;67.76
70133;BME280;57495;49.922;7.966;2022-08-18T07:05:58;99564.97;;;22.24;67.97
70133;BME280;57495;49.922;7.966;2022-08-18T07:08:07;99570.75;;;22.34;68.02
70133;BME280;57495;49.922;7.966;2022-08-18T07:10:29;99568.03;;;22.34;67.60
70133;BME280;57495;49.922;7.966;2022-08-18T07:12:31;99566.47;;;22.38;66.68
70133;BME280;57495;49.922;7.966;2022-08-18T07:14:41;99567.22;;;22.45;66.30
70133;BME280;57495;49.922;7.966;2022-08-18T07:16:44;99565.91;;;22.48;66.68
70133;BME280;57495;49.922;7.966;2022-08-18T07:18:46;99578.00;;;22.52;66.53
70133;BME280;57495;49.922;7.966;2022-08-18T07:20:51;99574.59;;;22.56;66.13
70133;BME280;57495;49.922;7.966;2022-08-18T07:22:55;99575.78;;;22.61;65.10
70133;BME280;57495;49.922;7.966;2022-08-18T07:25:00;99570.34;;;22.61;65.02
70133;BME280;57495;49.922;7.966;2022-08-18T07:27:06;99576.97;;;22.65;64.65
70133;BME280;57495;49.922;7.966;2022-08-18T07:29:12;99561.94;;;22.62;64.70
70133;BME280;57495;49.922;7.966;2022-08-18T07:31:24;99573.06;;;22.61;64.77
70133;BME280;57495;49.922;7.966;2022-08-18T07:33:29;99567.63;;;22.61;64.32
70133;BME280;57495;49.922;7.966;2022-08-18T07:35:36;99568.94;;;22.70;63.82
70133;BME280;57495;49.922;7.966;2022-08-18T07:37:42;99576.03;;;22.71;64.44
70133;BME280;57495;49.922;7.966;2022-08-18T07:39:49;99574.75;;;22.73;64.58
70133;BME280;57495;49.922;7.966;2022-08-18T07:42:01;99579.63;;;22.83;63.81
70133;BME280;57495;49.922;7.966;2022-08-18T07:44:13;99579.28;;;22.80;64.18
70133;BME280;57495;49.922;7.966;2022-08-18T07:46:23;99580.47;;;22.84;64.56
70133;BME280;57495;49.922;7.966;2022-08-18T07:48:31;99583.91;;;22.79;64.64
70133;BME280;57495;49.922;7.966;2022-08-18T07:50:40;99589.94;;;22.81;64.04
70133;BME280;57495;49.922;7.966;2022-08-18T07:52:50;99594.47;;;22.87;63.95
70133;BME280;57495;49.922;7.966;2022-08-18T07:54:59;99605.25;;;22.82;64.27
70133;BME280;57495;49.922;7.966;2022-08-18T07:57:07;99605.06;;;22.65;64.98
70133;BME280;57495;49.922;7.966;2022-08-18T07:59:21;99606.16;;;22.76;64.38
70133;BME280;57495;49.922;7.966;2022-08-18T08:01:31;99603.22;;;22.77;64.34
70133;BME280;57495;49.922;7.966;2022-08-18T08:03:44;99605.38;;;22.87;64.05
70133;BME280;57495;49.922;7.966;2022-08-18T08:05:59;99606.91;;;22.83;64.15
70133;BME280;57495;49.922;7.966;2022-08-18T08:08:13;99613.44;;;22.82;64.11
70133;BME280;57495;49.922;7.966;2022-08-18T08:10:27;99622.22;;;22.84;64.41
70133;BME280;57495;49.922;7.966;2022-08-18T08:12:35;99616.28;;;22.87;63.67
70133;BME280;57495;49.922;7.966;2022-08-18T08:14:43;99621.34;;;22.84;63.96
70133;BME280;57495;49.922;7.966;2022-08-18T08:16:49;99613.91;;;22.79;64.23
70133;BME280;57495;49.922;7.966;2022-08-18T08:18:57;99619.13;;;22.92;63.95
70133;BME280;57495;49.922;7.966;2022-08-18T08:21:08;99618.81;;;23.01;63.81
70133;BME280;57495;49.922;7.966;2022-08-18T08:23:18;99616.53;;;22.97;63.64
70133;BME280;57495;49.922;7.966;2022-08-18T08:25:25;99622.22;;;22.96;63.22
70133;BME280;57495;49.922;7.966;2022-08-18T08:27:37;99616.59;;;23.09;62.73
70133;BME280;57495;49.922;7.966;2022-08-18T08:29:46;99624.81;;;23.21;62.66
70133;BME280;57495;49.922;7.966;2022-08-18T08:31:57;99625.72;;;23.15;61.84
70133;BME280;57495;49.922;7.966;2022-08-18T08:34:06;99618.50;;;23.09;61.86
70133;BME280;57495;49.922;7.966;2022-08-18T08:36:14;99619.72;;;23.25;61.74
70133;BME280;57495;49.922;7.966;2022-08-18T08:38:23;99617.56;;;23.39;61.57
70133;BME280;57495;49.922;7.966;2022-08-18T08:40:27;99617.22;;;23.47;61.11
70133;BME280;57495;49.922;7.966;2022-08-18T08:42:37;99617.56;;;23.39;61.01
70133;BME280;57495;49.922;7.966;2022-08-18T08:44:44;99620.66;;;23.42;61.20
70133;BME280;57495;49.922;7.966;2022-08-18T08:46:51;99628.25;;;23.52;60.97
70133;BME280;57495;49.922;7.966;2022-08-18T08:49:00;99623.38;;;23.54;60.28
70133;BME280;57495;49.922;7.966;2022-08-18T08:51:18;99615.19;;;23.54;60.05
70133;BME280;57495;49.922;7.966;2022-08-18T08:53:26;99620.91;;;23.52;60.53
70133;BME280;57495;49.922;7.966;2022-08-18T08:55:33;99624.69;;;23.40;60.97
70133;BME280;57495;49.922;7.966;2022-08-18T08:57:40;99618.38;;;23.27;61.43
70133;BME280;57495;49.922;7.966;2022-08-18T08:59:43;99619.44;;;23.26;61.53
70133;BME280;57495;49.922;7.966;2022-08-18T09:01:54;99621.25;;;23.32;61.61
70133;BME280;57495;49.922;7.966;2022-08-18T09:04:02;99630.03;;;23.34;61.29
70133;BME280;57495;49.922;7.966;2022-08-18T09:06:20;99630.50;;;23.43;61.00
70133;BME280;57495;49.922;7.966;2022-08-18T09:11:02;99638.41;;;23.09;62.54
70133;BME280;57495;49.922;7.966;2022-08-18T09:13:22;99644.59;;;23.16;62.11
70133;BME280;57495;49.922;7.966;2022-08-18T09:15:37;99642.75;;;22.98;62.89
70133;BME280;57495;49.922;7.966;2022-08-18T09:18:09;99644.88;;;22.96;62.92
70133;BME280;57495;49.922;7.966;2022-08-18T09:22:46;99642.59;;;23.12;62.32
70133;BME280;57495;49.922;7.966;2022-08-18T09:24:51;99633.09;;;23.26;62.30
70133;BME280;57495;49.922;7.966;2022-08-18T09:27:11;99644.72;;;23.33;61.53
70133;BME280;57495;49.922;7.966;2022-08-18T09:29:17;99639.75;;;23.30;61.90
70133;BME280;57495;49.922;7.966;2022-08-18T09:31:24;99637.84;;;23.43;61.48
70133;BME280;57495;49.922;7.966;2022-08-18T09:33:33;99642.03;;;23.45;61.60
70133;BME280;57495;49.922;7.966;2022-08-18T09:35:47;99642.47;;;23.54;61.36
70133;BME280;57495;49.922;7.966;2022-08-18T09:37:57;99648.56;;;23.56;61.51
70133;BME280;57495;49.922;7.966;2022-08-18T09:40:20;99642.00;;;23.57;61.40
70133;BME280;57495;49.922;7.966;2022-08-18T09:42:56;99641.19;;;23.68;60.79
70133;BME280;57495;49.922;7.966;2022-08-18T09:45:06;99652.59;;;23.65;61.27
70133;BME280;57495;49.922;7.966;2022-08-18T09:47:08;99645.66;;;23.74;61.00
70133;BME280;57495;49.922;7.966;2022-08-18T09:49:42;99643.66;;;23.70;60.96
70133;BME280;57495;49.922;7.966;2022-08-18T09:51:45;99648.66;;;23.73;60.92
70133;BME280;57495;49.922;7.966;2022-08-18T09:54:12;99639.03;;;23.70;61.01
70133;BME280;57495;49.922;7.966;2022-08-18T09:56:16;99643.22;;;23.73;60.87
70133;BME280;57495;49.922;7.966;2022-08-18T09:58:41;99644.16;;;23.79;60.88
70133;BME280;57495;49.922;7.966;2022-08-18T10:00:41;99646.19;;;23.83;60.57
70133;BME280;57495;49.922;7.966;2022-08-18T10:03:15;99648.41;;;23.74;60.82
70133;BME280;57495;49.922;7.966;2022-08-18T10:05:25;99646.75;;;23.73;60.84
70133;BME280;57495;49.922;7.966;2022-08-18T10:07:30;99650.44;;;23.67;61.26
70133;BME280;57495;49.922;7.966;2022-08-18T10:09:40;99637.63;;;23.68;61.23
70133;BME280;57495;49.922;7.966;2022-08-18T10:11:54;99650.53;;;23.72;60.71
70133;BME280;57495;49.922;7.966;2022-08-18T10:14:12;99649.03;;;23.77;60.31
70133;BME280;57495;49.922;7.966;2022-08-18T10:16:23;99642.47;;;23.78;60.43
70133;BME280;57495;49.922;7.966;2022-08-18T10:18:38;99642.34;;;23.72;60.32
70133;BME280;57495;49.922;7.966;2022-08-18T10:20:55;99646.53;;;23.87;60.27
70133;BME280;57495;49.922;7.966;2022-08-18T10:22:58;99646.66;;;23.92;60.48
70133;BME280;57495;49.922;7.966;2022-08-18T10:25:01;99642.34;;;23.96;60.29
70133;BME280;57495;49.922;7.966;2022-08-18T10:27:05;99638.34;;;23.99;60.15
70133;BME280;57495;49.922;7.966;2022-08-18T10:29:44;99631.66;;;24.06;60.38
70133;BME280;57495;49.922;7.966;2022-08-18T10:34:37;99621.50;;;24.19;60.20
70133;BME280;57495;49.922;7.966;2022-08-18T10:36:50;99619.69;;;24.36;59.83
70133;BME280;57495;49.922;7.966;2022-08-18T10:38:52;99612.66;;;24.40;59.53
70133;BME280;57495;49.922;7.966;2022-08-18T10:40:59;99608.94;;;24.46;59.10
70133;BME280;57495;49.922;7.966;2022-08-18T10:43:08;99610.53;;;24.71;58.06
70133;BME280;57495;49.922;7.966;2022-08-18T10:45:14;99610.59;;;24.76;58.27
70133;BME280;57495;49.922;7.966;2022-08-18T10:47:23;99611.69;;;24.75;58.06
70133;BME280;57495;49.922;7.966;2022-08-18T10:49:28;99604.91;;;24.95;57.42
70133;BME280;57495;49.922;7.966;2022-08-18T10:51:41;99586.00;;;25.10;57.24
70133;BME280;57495;49.922;7.966;2022-08-18T10:53:50;99590.56;;;25.21;56.60
70133;BME280;57495;49.922;7.966;2022-08-18T10:56:00;99584.69;;;25.30;56.25
70133;BME280;57495;49.922;7.966;2022-08-18T10:58:11;99584.13;;;25.27;56.11
70133;BME280;57495;49.922;7.966;2022-08-18T11:00:19;99585.84;;;25.34;55.37
70133;BME280;57495;49.922;7.966;2022-08-18T11:02:46;99594.31;;;25.49;55.06
70133;BME280;57495;49.922;7.966;2022-08-18T11:04:53;99594.72;;;25.58;54.87
70133;BME280;57495;49.922;7.966;2022-08-18T11:07:04;99597.03;;;25.49;55.09
70133;BME280;57495;49.922;7.966;2022-08-18T11:09:08;99598.47;;;25.35;54.32
70133;BME280;57495;49.922;7.966;2022-08-18T11:11:12;99611.56;;;25.33;54.60
70133;BME280;57495;49.922;7.966;2022-08-18T11:13:21;99601.84;;;25.42;54.71
70133;BME280;57495;49.922;7.966;2022-08-18T11:15:35;99610.00;;;25.37;55.55
70133;BME280;57495;49.922;7.966;2022-08-18T11:17:46;99615.38;;;25.49;55.01
70133;BME280;57495;49.922;7.966;2022-08-18T11:19:51;99623.28;;;25.45;54.98